Time;durP1;ratioP1;P1;durP2;ratioP2;P2;SDS_P1;SDS_P2;PMS_P1;PMS_P2;Temp;Humidity;BMP_temperature;BMP_pressure;BME280_temperature;BME280_humidity;BME280_pressure;Samples;Min_cycle;Max_cycle;Signal;HPM_P1;HPM_P2
2021/06/08 00:01:24;;;;;;;4.40;4.00;;;;;;;;;;5047588;28;20210;-61
2021/06/08 00:03:50;;;;;;;4.47;4.10;;;;;;;;;;5049671;28;20182;-61
2021/06/08 00:06:16;;;;;;;4.27;3.97;;;;;;;;;;5047140;28;20209;-62
2021/06/08 00:08:51;;;;;;;4.60;4.30;;;;;;;;;;5052332;28;20507;-62
2021/06/08 00:11:20;;;;;;;4.63;4.23;;;;;;;;;;5035709;28;20181;-62
2021/06/08 00:13:46;;;;;;;4.63;4.27;;;;;;;;;;5026191;28;20230;-62
2021/06/08 00:16:12;;;;;;;4.80;4.40;;;;;;;;;;5027800;28;20220;-61
2021/06/08 00:18:38;;;;;;;4.53;4.13;;;;;;;;;;5027758;28;20207;-61
2021/06/08 00:21:05;;;;;;;4.63;4.17;;;;;;;;;;5026753;28;20663;-61
2021/06/08 00:23:31;;;;;;;4.63;4.23;;;;;;;;;;5028751;28;20255;-61
2021/06/08 00:25:57;;;;;;;4.60;4.20;;;;;;;;;;5028856;28;20205;-61
2021/06/08 00:28:23;;;;;;;5.23;4.83;;;;;;;;;;5026174;28;20182;-61
2021/06/08 00:30:49;;;;;;;4.80;4.40;;;;;;;;;;5027922;28;20574;-61
2021/06/08 00:33:15;;;;;;;4.60;4.20;;;;;;;;;;5032401;28;20620;-61
2021/06/08 00:35:41;;;;;;;4.80;4.47;;;;;;;;;;5032804;28;20190;-63
2021/06/08 00:38:07;;;;;;;4.43;4.13;;;;;;;;;;5033444;28;20177;-61
2021/06/08 00:40:34;;;;;;;5.23;4.80;;;;;;;;;;5032762;28;20185;-63
2021/06/08 00:43:03;;;;;;;4.30;4.00;;;;;;;;;;5031274;28;20185;-62
2021/06/08 00:45:29;;;;;;;5.93;5.53;;;;;;;;;;5034563;28;20632;-62
2021/06/08 00:47:55;;;;;;;5.20;4.80;;;;;;;;;;5032758;28;20173;-61
2021/06/08 00:50:23;;;;;;;4.87;4.47;;;;;;;;;;5035439;28;20178;-61
2021/06/08 00:52:51;;;;;;;4.87;4.47;;;;;;;;;;5032300;28;20206;-61
2021/06/08 00:55:18;;;;;;;5.07;4.67;;;;;;;;;;5033037;28;20261;-60
2021/06/08 00:57:50;;;;;;;4.93;4.53;;;;;;;;;;5033336;28;20212;-62
2021/06/08 01:00:17;;;;;;;5.13;4.73;;;;;;;;;;5032380;28;20185;-61
2021/06/08 01:02:43;;;;;;;4.63;4.23;;;;;;;;;;5029741;28;20209;-62
2021/06/08 01:05:09;;;;;;;4.83;4.40;;;;;;;;;;5028717;28;20259;-61
2021/06/08 01:07:36;;;;;;;4.70;4.30;;;;;;;;;;5031629;28;20652;-61
2021/06/08 01:10:04;;;;;;;4.73;4.33;;;;;;;;;;5032390;28;20246;-62
2021/06/08 01:12:30;;;;;;;4.90;4.43;;;;;;;;;;5036283;28;20197;-62
2021/06/08 01:14:59;;;;;;;4.87;4.47;;;;;;;;;;5055044;28;20191;-62
2021/06/08 01:17:37;;;;;;;5.00;4.60;;;;;;;;;;5050260;28;20471;-61
2021/06/08 01:20:04;;;;;;;5.13;4.73;;;;;;;;;;5050743;28;20184;-61
2021/06/08 01:22:30;;;;;;;5.20;4.80;;;;;;;;;;5029953;28;20208;-61
2021/06/08 01:24:56;;;;;;;5.47;5.03;;;;;;;;;;5047168;28;20737;-61
2021/06/08 01:27:23;;;;;;;5.10;4.60;;;;;;;;;;5029873;28;20569;-62
2021/06/08 01:29:50;;;;;;;5.00;4.57;;;;;;;;;;5033111;28;20657;-62
2021/06/08 01:32:17;;;;;;;5.33;4.93;;;;;;;;;;5050170;28;20607;-61
2021/06/08 01:34:52;;;;;;;5.40;4.90;;;;;;;;;;5051722;28;20272;-61
2021/06/08 01:37:21;;;;;;;5.00;4.60;;;;;;;;;;5054159;28;20169;-61
2021/06/08 01:39:51;;;;;;;5.17;4.53;;;;;;;;;;5040061;28;20200;-62
2021/06/08 01:42:17;;;;;;;5.17;4.77;;;;;;;;;;5057258;28;20262;-61
2021/06/08 01:44:44;;;;;;;4.70;4.30;;;;;;;;;;5024190;28;20259;-62
2021/06/08 01:47:11;;;;;;;5.00;4.60;;;;;;;;;;5034534;28;20585;-61
2021/06/08 01:49:37;;;;;;;4.30;3.93;;;;;;;;;;5056189;28;20173;-61
2021/06/08 01:52:07;;;;;;;4.57;4.17;;;;;;;;;;5050334;28;20173;-63
2021/06/08 01:54:35;;;;;;;4.33;4.00;;;;;;;;;;5033067;28;20602;-62
2021/06/08 01:57:01;;;;;;;5.00;4.57;;;;;;;;;;5032559;28;20283;-61
2021/06/08 01:59:37;;;;;;;4.80;4.37;;;;;;;;;;5046048;28;20173;-62
2021/06/08 02:02:18;;;;;;;5.83;4.10;;;;;;;;;;5049156;28;20212;-62
2021/06/08 02:04:52;;;;;;;4.30;4.00;;;;;;;;;;5032101;28;20230;-61
2021/06/08 02:07:41;;;;;;;3.87;3.57;;;;;;;;;;5049048;28;20664;-62
2021/06/08 02:10:26;;;;;;;4.03;3.73;;;;;;;;;;5031797;28;20179;-61
2021/06/08 02:12:55;;;;;;;4.03;3.73;;;;;;;;;;5045846;28;20957;-61
2021/06/08 02:15:22;;;;;;;4.37;4.07;;;;;;;;;;5049332;28;20662;-61
2021/06/08 02:17:53;;;;;;;3.93;3.63;;;;;;;;;;5049317;28;20193;-61
2021/06/08 02:20:21;;;;;;;4.30;3.90;;;;;;;;;;5050002;28;20193;-61
2021/06/08 02:22:51;;;;;;;4.67;4.27;;;;;;;;;;5031663;28;20183;-60
2021/06/08 02:25:18;;;;;;;4.47;4.17;;;;;;;;;;5040442;28;20209;-60
2021/06/08 02:27:44;;;;;;;4.87;4.47;;;;;;;;;;5050045;28;20177;-61
2021/06/08 02:30:11;;;;;;;4.47;4.07;;;;;;;;;;5049084;28;20173;-62
2021/06/08 02:32:38;;;;;;;5.37;4.47;;;;;;;;;;5031561;28;20235;-60
2021/06/08 02:35:04;;;;;;;4.40;4.00;;;;;;;;;;5050384;28;20185;-61
2021/06/08 02:37:31;;;;;;;4.57;4.17;;;;;;;;;;5049570;28;20262;-60
2021/06/08 02:39:57;;;;;;;4.53;4.13;;;;;;;;;;5050398;28;20539;-60
2021/06/08 02:42:24;;;;;;;3.73;3.53;;;;;;;;;;5030890;28;20695;-60
2021/06/08 02:44:50;;;;;;;4.60;4.20;;;;;;;;;;5049919;28;20208;-61
2021/06/08 02:47:18;;;;;;;4.70;4.30;;;;;;;;;;5046883;28;20252;-61
2021/06/08 02:49:44;;;;;;;4.93;4.53;;;;;;;;;;5050249;28;20203;-63
2021/06/08 02:52:11;;;;;;;4.57;4.17;;;;;;;;;;5050954;28;20177;-62
2021/06/08 02:54:38;;;;;;;4.63;4.23;;;;;;;;;;5051255;28;20200;-61
2021/06/08 02:57:04;;;;;;;4.57;4.17;;;;;;;;;;5051018;28;20611;-62
2021/06/08 02:59:32;;;;;;;4.93;4.23;;;;;;;;;;5049435;28;20192;-61
2021/06/08 03:01:59;;;;;;;5.40;4.90;;;;;;;;;;5031856;28;20203;-61
2021/06/08 03:04:28;;;;;;;5.00;4.50;;;;;;;;;;5050414;28;20678;-61
2021/06/08 03:06:55;;;;;;;4.73;4.33;;;;;;;;;;5049424;28;20181;-61
2021/06/08 03:09:28;;;;;;;5.40;4.90;;;;;;;;;;5032289;28;20591;-60
2021/06/08 03:11:57;;;;;;;4.30;4.00;;;;;;;;;;5052886;28;20885;-62
2021/06/08 03:14:24;;;;;;;4.90;4.40;;;;;;;;;;5050269;28;20247;-59
2021/06/08 03:16:54;;;;;;;5.00;4.43;;;;;;;;;;5049305;28;20188;-62
2021/06/08 03:19:24;;;;;;;4.77;4.37;;;;;;;;;;5049398;28;20177;-61
2021/06/08 03:21:51;;;;;;;5.23;4.80;;;;;;;;;;5031468;28;20193;-61
2021/06/08 03:24:19;;;;;;;4.60;4.20;;;;;;;;;;5050358;28;20184;-60
2021/06/08 03:26:46;;;;;;;5.10;4.70;;;;;;;;;;5048709;28;20250;-60
2021/06/08 03:29:13;;;;;;;5.10;4.70;;;;;;;;;;5049700;28;20173;-60
2021/06/08 03:31:41;;;;;;;4.53;4.13;;;;;;;;;;5048716;28;20189;-61
2021/06/08 03:34:07;;;;;;;4.73;4.33;;;;;;;;;;5049894;28;20173;-61
2021/06/08 03:36:35;;;;;;;4.47;4.10;;;;;;;;;;5050133;28;20188;-60
2021/06/08 03:39:02;;;;;;;4.73;4.40;;;;;;;;;;5048899;28;20601;-61
2021/06/08 03:41:28;;;;;;;4.60;4.30;;;;;;;;;;5043819;28;20260;-63
2021/06/08 03:43:55;;;;;;;4.83;4.43;;;;;;;;;;5029239;28;20620;-61
2021/06/08 03:46:25;;;;;;;4.73;4.33;;;;;;;;;;5029958;28;20209;-61
2021/06/08 03:48:52;;;;;;;5.20;4.80;;;;;;;;;;5048950;28;20195;-60
2021/06/08 03:51:18;;;;;;;4.77;4.37;;;;;;;;;;5048176;28;20174;-61
2021/06/08 03:53:44;;;;;;;5.13;4.70;;;;;;;;;;5047794;28;20266;-61
2021/06/08 03:56:13;;;;;;;4.63;4.27;;;;;;;;;;5047441;28;20177;-61
2021/06/08 03:58:41;;;;;;;5.20;4.70;;;;;;;;;;5048074;28;20184;-61
2021/06/08 04:01:07;;;;;;;4.90;4.50;;;;;;;;;;5047205;28;20220;-61
2021/06/08 04:03:36;;;;;;;4.93;4.50;;;;;;;;;;5052751;28;20276;-62
2021/06/08 04:06:02;;;;;;;4.87;4.47;;;;;;;;;;5048327;28;20215;-61
2021/06/08 04:08:31;;;;;;;4.97;4.57;;;;;;;;;;5047631;28;20239;-63
2021/06/08 04:10:57;;;;;;;4.53;4.10;;;;;;;;;;5046532;28;20177;-60
2021/06/08 04:13:23;;;;;;;5.50;4.43;;;;;;;;;;5047976;28;20212;-60
2021/06/08 04:15:50;;;;;;;4.30;3.90;;;;;;;;;;5046840;28;20189;-60
2021/06/08 04:18:16;;;;;;;4.57;4.10;;;;;;;;;;5040842;28;20185;-61
2021/06/08 04:20:42;;;;;;;4.47;4.07;;;;;;;;;;5052077;28;20199;-60
2021/06/08 04:23:08;;;;;;;5.13;4.63;;;;;;;;;;5029628;28;20190;-60
2021/06/08 04:25:35;;;;;;;5.13;4.10;;;;;;;;;;5048135;28;20264;-61
2021/06/08 04:28:02;;;;;;;4.80;4.40;;;;;;;;;;5046094;28;20228;-63
2021/06/08 04:30:28;;;;;;;4.63;4.23;;;;;;;;;;5048382;28;20696;-60
2021/06/08 04:32:54;;;;;;;4.30;3.90;;;;;;;;;;5045619;28;20173;-61
2021/06/08 04:35:20;;;;;;;5.22;4.82;;;;;;;;;;5048571;28;20524;-61
2021/06/08 04:37:47;;;;;;;4.03;3.70;;;;;;;;;;5052226;28;20215;-61
2021/06/08 04:40:13;;;;;;;4.30;3.90;;;;;;;;;;5048394;28;20189;-61
2021/06/08 04:42:42;;;;;;;4.10;3.70;;;;;;;;;;5047468;28;20560;-60
2021/06/08 04:45:08;;;;;;;4.17;3.87;;;;;;;;;;5048274;28;20754;-61
2021/06/08 04:47:34;;;;;;;4.20;3.90;;;;;;;;;;5046557;28;20225;-61
2021/06/08 04:50:00;;;;;;;4.70;4.30;;;;;;;;;;5047592;28;20177;-61
2021/06/08 04:52:26;;;;;;;4.13;3.73;;;;;;;;;;5046786;28;20266;-61
2021/06/08 04:54:52;;;;;;;4.37;3.97;;;;;;;;;;5048149;28;20224;-61
2021/06/08 04:57:18;;;;;;;4.33;3.93;;;;;;;;;;5047106;28;20184;-61
2021/06/08 05:00:03;;;;;;;4.57;4.27;;;;;;;;;;5048546;28;20185;-62
2021/06/08 05:02:40;;;;;;;5.23;4.83;;;;;;;;;;5025866;28;20199;-60
2021/06/08 05:05:08;;;;;;;4.47;4.07;;;;;;;;;;5047856;28;20204;-62
2021/06/08 05:07:41;;;;;;;4.47;4.10;;;;;;;;;;5050157;28;20184;-61
2021/06/08 05:10:10;;;;;;;5.03;4.07;;;;;;;;;;5050856;28;20500;-61
2021/06/08 05:12:36;;;;;;;5.07;4.70;;;;;;;;;;5045847;28;20184;-62
2021/06/08 05:15:03;;;;;;;4.30;3.90;;;;;;;;;;5051535;28;20181;-61
2021/06/08 05:17:31;;;;;;;4.77;4.37;;;;;;;;;;5051075;28;20177;-61
2021/06/08 05:19:57;;;;;;;5.03;4.43;;;;;;;;;;5051804;28;20212;-61
2021/06/08 05:22:24;;;;;;;4.80;4.40;;;;;;;;;;5049669;28;20264;-60
2021/06/08 05:24:51;;;;;;;4.90;3.97;;;;;;;;;;5033373;28;20209;-61
2021/06/08 05:27:18;;;;;;;4.80;4.40;;;;;;;;;;5050461;28;20554;-61
2021/06/08 05:29:45;;;;;;;4.60;4.20;;;;;;;;;;5050771;28;20292;-60
2021/06/08 05:32:12;;;;;;;4.07;3.77;;;;;;;;;;5050038;28;20223;-62
2021/06/08 05:34:41;;;;;;;6.80;6.20;;;;;;;;;;5052529;28;20209;-61
2021/06/08 05:37:10;;;;;;;8.00;7.20;;;;;;;;;;5051965;28;20184;-61
2021/06/08 05:39:37;;;;;;;7.53;6.80;;;;;;;;;;5052821;28;20188;-61
2021/06/08 05:42:03;;;;;;;7.37;6.77;;;;;;;;;;5051320;28;20665;-61
2021/06/08 05:44:29;;;;;;;6.90;6.30;;;;;;;;;;5051905;28;20666;-60
2021/06/08 05:46:55;;;;;;;7.40;6.70;;;;;;;;;;5050378;28;20185;-60
2021/06/08 05:49:21;;;;;;;7.60;6.77;;;;;;;;;;5031250;28;20178;-60
2021/06/08 05:51:48;;;;;;;6.80;6.10;;;;;;;;;;5050761;28;20599;-61
2021/06/08 05:54:14;;;;;;;6.70;6.10;;;;;;;;;;5051790;28;20189;-61
2021/06/08 05:56:40;;;;;;;6.97;6.37;;;;;;;;;;5050368;28;20181;-60
2021/06/08 05:59:14;;;;;;;7.40;6.80;;;;;;;;;;5043873;28;20655;-60
2021/06/08 06:01:40;;;;;;;7.23;6.60;;;;;;;;;;5050432;28;20201;-60
2021/06/08 06:04:07;;;;;;;6.37;5.77;;;;;;;;;;5051262;28;20189;-60
2021/06/08 06:06:33;;;;;;;7.30;6.60;;;;;;;;;;5050057;28;20209;-61
2021/06/08 06:09:00;;;;;;;7.47;6.77;;;;;;;;;;5051768;28;20243;-60
2021/06/08 06:11:28;;;;;;;6.90;6.20;;;;;;;;;;5050770;28;20181;-62
2021/06/08 06:14:04;;;;;;;7.73;7.00;;;;;;;;;;5050726;28;20213;-60
2021/06/08 06:16:33;;;;;;;6.13;5.63;;;;;;;;;;5048659;28;20186;-61
2021/06/08 06:19:00;;;;;;;5.90;5.27;;;;;;;;;;5054372;28;20183;-61
2021/06/08 06:21:27;;;;;;;5.73;5.13;;;;;;;;;;5049909;28;20346;-60
2021/06/08 06:23:54;;;;;;;6.33;5.73;;;;;;;;;;5033347;28;20245;-61
2021/06/08 06:26:20;;;;;;;6.40;5.90;;;;;;;;;;5031686;28;20654;-61
2021/06/08 06:28:46;;;;;;;5.77;5.27;;;;;;;;;;5010708;28;20181;-61
2021/06/08 06:31:13;;;;;;;5.70;5.20;;;;;;;;;;5048149;28;20188;-62
2021/06/08 06:33:43;;;;;;;6.40;5.80;;;;;;;;;;5048515;28;20181;-61
2021/06/08 06:36:11;;;;;;;6.67;6.07;;;;;;;;;;5049653;28;20658;-61
2021/06/08 06:38:38;;;;;;;6.83;6.33;;;;;;;;;;5033129;28;20608;-61
2021/06/08 06:41:06;;;;;;;7.70;7.00;;;;;;;;;;5030817;28;20510;-61
2021/06/08 06:43:33;;;;;;;7.30;6.60;;;;;;;;;;5050542;28;20188;-61
2021/06/08 06:45:59;;;;;;;7.33;6.63;;;;;;;;;;5049434;28;20292;-61
2021/06/08 06:48:25;;;;;;;7.63;6.93;;;;;;;;;;5050022;28;20671;-61
2021/06/08 06:50:52;;;;;;;8.87;7.50;;;;;;;;;;5048621;28;20186;-60
2021/06/08 06:53:19;;;;;;;8.17;7.37;;;;;;;;;;5049589;28;20185;-62
2021/06/08 06:55:52;;;;;;;9.23;8.33;;;;;;;;;;5048197;28;20308;-63
2021/06/08 06:58:19;;;;;;;8.43;7.73;;;;;;;;;;5049809;28;20192;-60
2021/06/08 07:00:45;;;;;;;9.00;8.10;;;;;;;;;;5045376;28;20186;-61
2021/06/08 07:03:14;;;;;;;9.20;8.33;;;;;;;;;;5045652;28;20568;-61
2021/06/08 07:05:40;;;;;;;8.73;7.93;;;;;;;;;;5042086;28;20600;-61
2021/06/08 07:08:07;;;;;;;9.73;8.73;;;;;;;;;;5048674;28;20644;-60
2021/06/08 07:10:34;;;;;;;9.30;8.40;;;;;;;;;;5031216;28;20580;-61
2021/06/08 07:13:05;;;;;;;10.95;9.93;;;;;;;;;;5047707;28;20474;-61
2021/06/08 07:15:31;;;;;;;9.83;8.90;;;;;;;;;;5041273;28;20207;-61
2021/06/08 07:17:58;;;;;;;9.50;8.60;;;;;;;;;;5030374;28;20522;-62
2021/06/08 07:20:25;;;;;;;8.80;7.90;;;;;;;;;;5050263;28;20181;-61
2021/06/08 07:22:51;;;;;;;10.80;9.80;;;;;;;;;;5030704;28;20270;-61
2021/06/08 07:25:18;;;;;;;10.20;9.20;;;;;;;;;;5050070;28;20545;-61
2021/06/08 07:27:44;;;;;;;9.53;8.63;;;;;;;;;;5030503;28;20538;-61
2021/06/08 07:30:11;;;;;;;9.83;8.93;;;;;;;;;;5042454;28;20527;-63
2021/06/08 07:32:48;;;;;;;9.60;8.67;;;;;;;;;;5047991;28;20554;-61
2021/06/08 07:35:36;;;;;;;9.67;8.87;;;;;;;;;;5041172;28;20184;-60
2021/06/08 07:38:08;;;;;;;9.40;8.37;;;;;;;;;;5048324;28;20173;-60
2021/06/08 07:40:37;;;;;;;10.13;9.23;;;;;;;;;;5049381;28;20631;-61
2021/06/08 07:43:04;;;;;;;10.13;9.17;;;;;;;;;;5047968;28;20178;-61
2021/06/08 07:45:32;;;;;;;10.63;9.63;;;;;;;;;;5049297;28;20279;-61
2021/06/08 07:47:59;;;;;;;10.97;9.97;;;;;;;;;;5048503;28;20285;-62
2021/06/08 07:50:27;;;;;;;10.63;9.63;;;;;;;;;;5040690;28;20181;-61
2021/06/08 07:52:54;;;;;;;11.97;10.83;;;;;;;;;;5047229;28;20173;-61
2021/06/08 07:55:20;;;;;;;11.43;10.33;;;;;;;;;;5048578;28;20235;-61
2021/06/08 07:57:46;;;;;;;12.30;11.00;;;;;;;;;;5047906;28;20200;-61
2021/06/08 08:00:13;;;;;;;13.07;10.73;;;;;;;;;;5031428;28;20189;-61
2021/06/08 08:02:40;;;;;;;12.47;11.17;;;;;;;;;;5046807;28;20213;-60
2021/06/08 08:05:10;;;;;;;9.70;8.90;;;;;;;;;;5048276;28;20737;-61
2021/06/08 08:07:54;;;;;;;11.23;10.13;;;;;;;;;;5025521;28;20254;-61
2021/06/08 08:10:22;;;;;;;12.60;11.43;;;;;;;;;;5030766;28;20177;-61
2021/06/08 08:12:48;;;;;;;13.63;12.27;;;;;;;;;;5047405;28;20217;-61
2021/06/08 08:15:14;;;;;;;12.27;11.17;;;;;;;;;;5049498;28;20702;-60
2021/06/08 08:17:41;;;;;;;10.70;9.70;;;;;;;;;;5052434;28;20180;-61
2021/06/08 08:20:09;;;;;;;10.83;9.83;;;;;;;;;;5047661;28;20188;-61
2021/06/08 08:22:35;;;;;;;12.03;10.90;;;;;;;;;;5049019;28;20210;-62
2021/06/08 08:25:01;;;;;;;11.63;10.60;;;;;;;;;;5048036;28;20746;-61
2021/06/08 08:27:27;;;;;;;10.17;9.20;;;;;;;;;;5047690;28;20623;-61
2021/06/08 08:29:53;;;;;;;11.20;10.20;;;;;;;;;;5047966;28;20257;-61
2021/06/08 08:32:19;;;;;;;11.50;10.40;;;;;;;;;;5046990;28;20213;-61
2021/06/08 08:34:46;;;;;;;10.40;9.50;;;;;;;;;;5049632;28;20190;-61
2021/06/08 08:37:12;;;;;;;10.37;9.37;;;;;;;;;;5047576;28;20220;-61
2021/06/08 08:39:39;;;;;;;10.07;9.07;;;;;;;;;;5048299;28;20698;-61
2021/06/08 08:42:05;;;;;;;11.27;9.93;;;;;;;;;;5046679;28;20304;-61
2021/06/08 08:44:31;;;;;;;10.67;9.70;;;;;;;;;;5048159;28;20180;-61
2021/06/08 08:46:58;;;;;;;11.17;10.17;;;;;;;;;;5047208;28;20173;-60
2021/06/08 08:49:24;;;;;;;11.00;10.07;;;;;;;;;;5048806;28;20181;-61
2021/06/08 08:51:50;;;;;;;11.77;10.67;;;;;;;;;;5047802;28;20202;-61
2021/06/08 08:54:20;;;;;;;11.37;10.37;;;;;;;;;;5030939;28;20183;-61
2021/06/08 08:56:46;;;;;;;10.80;9.73;;;;;;;;;;5047402;28;20227;-61
2021/06/08 08:59:15;;;;;;;12.03;10.87;;;;;;;;;;5048600;28;20256;-61
2021/06/08 09:01:43;;;;;;;10.57;9.60;;;;;;;;;;5028806;28;20209;-63
2021/06/08 09:04:10;;;;;;;11.90;10.80;;;;;;;;;;5030829;28;20188;-62
2021/06/08 09:06:36;;;;;;;12.47;11.27;;;;;;;;;;5047553;28;20197;-61
2021/06/08 09:09:03;;;;;;;12.50;11.20;;;;;;;;;;5053009;28;20227;-61
2021/06/08 09:11:31;;;;;;;11.30;10.30;;;;;;;;;;5046782;28;20192;-62
2021/06/08 09:13:58;;;;;;;11.57;10.47;;;;;;;;;;5048185;28;20189;-61
2021/06/08 09:16:24;;;;;;;11.67;10.57;;;;;;;;;;5047038;28;20185;-61
2021/06/08 09:18:52;;;;;;;10.10;9.23;;;;;;;;;;5048259;28;20211;-62
2021/06/08 09:21:32;;;;;;;11.17;9.77;;;;;;;;;;5044095;28;20185;-60
2021/06/08 09:24:14;;;;;;;10.60;9.53;;;;;;;;;;5048353;28;20166;-61
2021/06/08 09:26:56;;;;;;;10.13;9.10;;;;;;;;;;5050241;28;20205;-62
2021/06/08 09:29:41;;;;;;;8.90;8.03;;;;;;;;;;5028002;28;20184;-61
2021/06/08 09:32:31;;;;;;;10.40;9.43;;;;;;;;;;5046362;28;20223;-61
2021/06/08 09:34:58;;;;;;;9.67;8.77;;;;;;;;;;5019914;28;20200;-60
2021/06/08 09:37:30;;;;;;;10.83;9.83;;;;;;;;;;5046471;28;20186;-61
2021/06/08 09:39:56;;;;;;;9.07;8.37;;;;;;;;;;5048463;28;20185;-61
2021/06/08 09:42:23;;;;;;;8.97;7.63;;;;;;;;;;5047593;28;20367;-61
2021/06/08 09:44:50;;;;;;;8.33;7.53;;;;;;;;;;5030412;28;20205;-62
2021/06/08 09:47:26;;;;;;;8.90;8.10;;;;;;;;;;5045120;28;20419;-62
2021/06/08 09:49:52;;;;;;;8.67;7.87;;;;;;;;;;5048371;28;20248;-61
2021/06/08 09:52:20;;;;;;;9.03;8.23;;;;;;;;;;5048860;28;20187;-62
2021/06/08 09:54:48;;;;;;;7.57;6.97;;;;;;;;;;5045871;28;20234;-60
2021/06/08 09:57:26;;;;;;;7.57;6.97;;;;;;;;;;5051035;28;20543;-61
2021/06/08 09:59:52;;;;;;;7.73;7.13;;;;;;;;;;5044700;28;20182;-62
2021/06/08 10:02:21;;;;;;;7.83;7.23;;;;;;;;;;5049314;28;20619;-60
2021/06/08 10:04:47;;;;;;;7.30;6.70;;;;;;;;;;5050732;28;20235;-62
2021/06/08 10:07:29;;;;;;;9.17;8.37;;;;;;;;;;5048827;28;20185;-61
2021/06/08 10:10:01;;;;;;;9.73;8.93;;;;;;;;;;5043554;28;20182;-60
2021/06/08 10:12:28;;;;;;;10.20;9.30;;;;;;;;;;5033132;28;20196;-61
2021/06/08 10:14:56;;;;;;;11.00;9.90;;;;;;;;;;5050738;28;20510;-61
2021/06/08 10:17:28;;;;;;;11.17;10.17;;;;;;;;;;5052477;28;20194;-61
2021/06/08 10:20:16;;;;;;;10.83;10.00;;;;;;;;;;5032772;28;20185;-64
2021/06/08 10:22:42;;;;;;;11.70;10.80;;;;;;;;;;5049442;28;20654;-62
2021/06/08 10:25:08;;;;;;;11.67;10.57;;;;;;;;;;5032509;28;20197;-62
2021/06/08 10:27:35;;;;;;;12.07;11.13;;;;;;;;;;5050826;28;20534;-61
2021/06/08 10:30:01;;;;;;;12.27;11.27;;;;;;;;;;5050928;28;20266;-61
2021/06/08 10:32:27;;;;;;;11.80;10.87;;;;;;;;;;5025149;28;20204;-62
2021/06/08 10:34:53;;;;;;;13.27;12.23;;;;;;;;;;5048657;28;20276;-61
2021/06/08 10:37:20;;;;;;;12.70;11.70;;;;;;;;;;5048660;28;20640;-61
2021/06/08 10:39:46;;;;;;;14.70;13.53;;;;;;;;;;5051022;28;20177;-61
2021/06/08 10:42:12;;;;;;;13.60;12.40;;;;;;;;;;5049421;28;20192;-62
2021/06/08 10:44:40;;;;;;;14.70;13.50;;;;;;;;;;5050680;28;20250;-62
2021/06/08 10:47:20;;;;;;;15.13;13.83;;;;;;;;;;5047265;28;20185;-62
2021/06/08 10:49:49;;;;;;;15.77;14.47;;;;;;;;;;5047429;28;20565;-62
2021/06/08 10:52:17;;;;;;;16.93;15.53;;;;;;;;;;5031761;28;20601;-62
2021/06/08 10:54:44;;;;;;;15.53;14.23;;;;;;;;;;5049117;28;20254;-61
2021/06/08 10:57:14;;;;;;;16.50;15.20;;;;;;;;;;5049018;28;20173;-61
2021/06/08 10:59:53;;;;;;;16.90;15.40;;;;;;;;;;5050492;28;20169;-63
2021/06/08 11:02:37;;;;;;;17.33;15.93;;;;;;;;;;5030769;28;20201;-61
2021/06/08 11:05:04;;;;;;;17.47;15.97;;;;;;;;;;5030854;28;20208;-61
2021/06/08 11:10:29;;;;;;;18.33;16.83;;;;;;;;;;5049838;28;20188;-61
2021/06/08 11:13:11;;;;;;;18.37;16.87;;;;;;;;;;5031694;28;20223;-61
2021/06/08 11:15:50;;;;;;;18.20;16.80;;;;;;;;;;5045375;28;20173;-63
2021/06/08 11:18:19;;;;;;;17.47;16.07;;;;;;;;;;5030906;28;20655;-60
2021/06/08 11:20:45;;;;;;;15.80;14.60;;;;;;;;;;5049254;28;20200;-61
2021/06/08 11:23:30;;;;;;;17.53;16.10;;;;;;;;;;5049970;28;20181;-61
2021/06/08 11:25:56;;;;;;;17.93;16.43;;;;;;;;;;5048939;28;20863;-61
2021/06/08 11:28:22;;;;;;;16.43;15.13;;;;;;;;;;5042201;28;20173;-61
2021/06/08 11:30:52;;;;;;;15.20;13.93;;;;;;;;;;5048459;28;20246;-62
2021/06/08 11:33:37;;;;;;;15.73;14.43;;;;;;;;;;5049318;28;20173;-61
2021/06/08 11:36:23;;;;;;;14.53;13.43;;;;;;;;;;5048900;28;20188;-61
2021/06/08 11:38:50;;;;;;;15.57;14.37;;;;;;;;;;5046244;28;20189;-63
2021/06/08 11:41:17;;;;;;;15.50;14.30;;;;;;;;;;5048904;28;20528;-61
2021/06/08 11:44:13;;;;;;;15.03;13.83;;;;;;;;;;5049886;28;20177;-62
2021/06/08 11:46:52;;;;;;;15.37;14.07;;;;;;;;;;5025818;28;20225;-62
2021/06/08 11:49:19;;;;;;;15.07;13.83;;;;;;;;;;5031539;28;20192;-62
2021/06/08 11:51:48;;;;;;;14.23;13.13;;;;;;;;;;5047217;28;20192;-62
2021/06/08 11:54:16;;;;;;;13.93;12.67;;;;;;;;;;5049560;28;20274;-63
2021/06/08 11:56:42;;;;;;;12.57;11.57;;;;;;;;;;5025027;28;20317;-62
2021/06/08 11:59:08;;;;;;;12.53;11.53;;;;;;;;;;5031035;28;20238;-63
2021/06/08 12:01:42;;;;;;;11.70;10.57;;;;;;;;;;5046494;28;20198;-62
2021/06/08 12:04:08;;;;;;;11.63;10.63;;;;;;;;;;5030734;28;20623;-61
2021/06/08 12:06:53;;;;;;;10.30;9.40;;;;;;;;;;5043600;28;20231;-62
2021/06/08 12:09:19;;;;;;;12.93;11.93;;;;;;;;;;5050223;28;20627;-62
2021/06/08 12:11:45;;;;;;;11.43;10.53;;;;;;;;;;5048727;28;20184;-62
2021/06/08 12:14:11;;;;;;;12.70;11.70;;;;;;;;;;5046950;28;20437;-62
2021/06/08 12:16:39;;;;;;;12.53;11.53;;;;;;;;;;5049833;28;20282;-61
2021/06/08 12:19:08;;;;;;;11.73;10.57;;;;;;;;;;5050234;28;20201;-61
2021/06/08 12:21:34;;;;;;;10.73;9.87;;;;;;;;;;5048566;28;20185;-62
2021/06/08 12:24:00;;;;;;;11.47;10.47;;;;;;;;;;5049904;28;20181;-61
2021/06/08 12:26:27;;;;;;;10.50;9.63;;;;;;;;;;5049322;28;20204;-61
2021/06/08 12:29:11;;;;;;;10.00;9.20;;;;;;;;;;5049820;28;20235;-61
2021/06/08 12:31:38;;;;;;;11.07;10.17;;;;;;;;;;5048079;28;20184;-61
2021/06/08 12:34:11;;;;;;;10.20;9.37;;;;;;;;;;5031763;28;20176;-61
2021/06/08 12:36:40;;;;;;;10.73;9.73;;;;;;;;;;5041732;28;20181;-61
2021/06/08 12:39:10;;;;;;;10.00;9.10;;;;;;;;;;5049048;28;20178;-62
2021/06/08 12:41:36;;;;;;;10.20;9.40;;;;;;;;;;5047161;28;20170;-61
2021/06/08 12:44:02;;;;;;;12.00;11.00;;;;;;;;;;5047849;28;20251;-61
2021/06/08 12:46:29;;;;;;;11.10;10.17;;;;;;;;;;5043880;28;20688;-61
2021/06/08 12:49:02;;;;;;;10.23;9.40;;;;;;;;;;5048507;28;20545;-61
2021/06/08 12:51:35;;;;;;;11.80;10.80;;;;;;;;;;5047785;28;20661;-61
2021/06/08 12:54:01;;;;;;;11.53;10.63;;;;;;;;;;5049232;28;20636;-60
2021/06/08 12:56:27;;;;;;;11.63;10.73;;;;;;;;;;5048728;28;20195;-61
2021/06/08 12:58:53;;;;;;;10.97;10.07;;;;;;;;;;5048419;28;20662;-61
2021/06/08 13:01:20;;;;;;;11.93;10.90;;;;;;;;;;5047729;28;20192;-61
2021/06/08 13:03:46;;;;;;;12.97;11.83;;;;;;;;;;5048417;28;20188;-62
2021/06/08 13:06:13;;;;;;;11.03;10.13;;;;;;;;;;5028891;28;20212;-60
2021/06/08 13:08:46;;;;;;;11.13;10.23;;;;;;;;;;5048707;28;20253;-61
2021/06/08 13:11:28;;;;;;;8.90;8.20;;;;;;;;;;5044589;28;20579;-63
2021/06/08 13:13:55;;;;;;;9.93;9.13;;;;;;;;;;5044630;28;20221;-61
2021/06/08 13:16:31;;;;;;;8.73;8.03;;;;;;;;;;5047206;28;20191;-62
2021/06/08 13:19:13;;;;;;;10.03;9.23;;;;;;;;;;5048793;28;20227;-62
2021/06/08 13:21:39;;;;;;;9.53;8.83;;;;;;;;;;5045876;28;20188;-61
2021/06/08 13:24:09;;;;;;;9.13;8.43;;;;;;;;;;5043693;28;20258;-62
2021/06/08 13:26:36;;;;;;;10.40;9.33;;;;;;;;;;5047587;28;20251;-63
2021/06/08 13:29:12;;;;;;;10.87;9.77;;;;;;;;;;5047727;28;20591;-63
2021/06/08 13:31:39;;;;;;;8.40;7.80;;;;;;;;;;5046385;28;20615;-64
2021/06/08 13:34:15;;;;;;;9.33;8.63;;;;;;;;;;5031048;28;20178;-65
2021/06/08 13:36:44;;;;;;;8.67;7.80;;;;;;;;;;5045218;28;20189;-63
2021/06/08 13:39:11;;;;;;;10.30;9.50;;;;;;;;;;5031536;28;20548;-63
2021/06/08 13:41:37;;;;;;;10.17;9.27;;;;;;;;;;5049768;28;20181;-63
2021/06/08 13:44:07;;;;;;;10.23;9.37;;;;;;;;;;5048687;28;20188;-64
2021/06/08 13:46:34;;;;;;;9.80;8.90;;;;;;;;;;5031805;28;20295;-63
2021/06/08 13:49:02;;;;;;;10.40;9.60;;;;;;;;;;5032768;28;20272;-63
2021/06/08 13:51:29;;;;;;;10.53;9.73;;;;;;;;;;5048744;28;20534;-63
2021/06/08 13:54:08;;;;;;;10.40;9.60;;;;;;;;;;5048042;28;20565;-63
2021/06/08 13:56:47;;;;;;;10.13;9.23;;;;;;;;;;5049796;28;20624;-63
2021/06/08 14:02:04;;;;;;;8.53;7.83;;;;;;;;;;5048535;28;20917;-64
2021/06/08 14:04:47;;;;;;;8.93;8.23;;;;;;;;;;5041669;28;20188;-63
2021/06/08 14:07:14;;;;;;;9.87;9.07;;;;;;;;;;5032031;28;20667;-65
2021/06/08 14:09:48;;;;;;;8.30;7.70;;;;;;;;;;5034398;28;20180;-63
2021/06/08 14:12:15;;;;;;;8.33;7.53;;;;;;;;;;5032806;28;20173;-63
2021/06/08 14:14:41;;;;;;;7.60;7.00;;;;;;;;;;5048443;28;20692;-63
2021/06/08 14:17:17;;;;;;;8.87;8.07;;;;;;;;;;5049220;28;20537;-63
2021/06/08 14:19:44;;;;;;;7.87;7.07;;;;;;;;;;5050718;28;20192;-63
2021/06/08 14:22:10;;;;;;;7.23;6.73;;;;;;;;;;5031056;28;20169;-63
2021/06/08 14:24:37;;;;;;;7.33;6.70;;;;;;;;;;5031682;28;20645;-63
2021/06/08 14:27:09;;;;;;;8.17;7.57;;;;;;;;;;5051036;28;20650;-63
2021/06/08 14:29:35;;;;;;;7.60;6.80;;;;;;;;;;5044737;28;20177;-63
2021/06/08 14:32:01;;;;;;;7.07;6.47;;;;;;;;;;5049606;28;20535;-63
2021/06/08 14:34:27;;;;;;;7.77;7.17;;;;;;;;;;5050372;28;20552;-62
2021/06/08 14:36:54;;;;;;;8.23;7.53;;;;;;;;;;5030259;28;20669;-63
2021/06/08 14:39:20;;;;;;;8.07;7.20;;;;;;;;;;5050728;28;20188;-62
2021/06/08 14:41:46;;;;;;;7.60;7.00;;;;;;;;;;5050491;28;20233;-62
2021/06/08 14:44:12;;;;;;;7.93;7.23;;;;;;;;;;5050934;28;20178;-63
2021/06/08 14:46:39;;;;;;;7.90;7.30;;;;;;;;;;5045714;28;20221;-63
2021/06/08 14:49:05;;;;;;;7.60;6.97;;;;;;;;;;5051860;28;20179;-62
2021/06/08 14:51:31;;;;;;;6.93;6.23;;;;;;;;;;5049431;28;20197;-63